<?xml version="1.0" encoding="UTF-8" standalone="no" ?>
<gpx xmlns="http://www.topografix.com/GPX/1/1" xmlns:xsi="http://www.w3.org/2001/XMLSchema-instance" xsi:schemaLocation="http://www.topografix.com/GPX/1/1 http://www.topografix.com/GPX/1/1/gpx.xsd" version="1.1" creator="VisuGPX - https://www.visugpx.com">
  <metadata>
    <name>Yzeures-S-C/Le-Blanc N°1</name>
  </metadata>
  <trk>
    <name><![CDATA[2164558-jusqu'à Le Blanc]]></name>
    <trkseg>
      <trkpt lat="46.78761" lon="0.85678">
        <ele>64</ele>
        <time>2021-06-01T17:55:31Z</time>
      </trkpt>
      <trkpt lat="46.78772" lon="0.85634">
        <ele>64</ele>
        <time>2021-06-01T17:55:37Z</time>
      </trkpt>
      <trkpt lat="46.78795" lon="0.856">
        <ele>64</ele>
        <time>2021-06-01T17:55:43Z</time>
      </trkpt>
      <trkpt lat="46.78879" lon="0.85635">
        <ele>67</ele>
        <time>2021-06-01T17:55:58Z</time>
      </trkpt>
      <trkpt lat="46.78884" lon="0.85833">
        <ele>69</ele>
        <time>2021-06-01T17:56:22Z</time>
      </trkpt>
      <trkpt lat="46.78801" lon="0.86159">
        <ele>70</ele>
        <time>2021-06-01T17:57:05Z</time>
      </trkpt>
      <trkpt lat="46.78708" lon="0.86361">
        <ele>67</ele>
        <time>2021-06-01T17:57:34Z</time>
      </trkpt>
      <trkpt lat="46.78671" lon="0.86463">
        <ele>66</ele>
        <time>2021-06-01T17:57:48Z</time>
      </trkpt>
      <trkpt lat="46.78634" lon="0.86589">
        <ele>67</ele>
        <time>2021-06-01T17:58:05Z</time>
      </trkpt>
      <trkpt lat="46.78608" lon="0.86684">
        <ele>69</ele>
        <time>2021-06-01T17:58:17Z</time>
      </trkpt>
      <trkpt lat="46.78565" lon="0.86985">
        <ele>73</ele>
        <time>2021-06-01T17:58:55Z</time>
      </trkpt>
      <trkpt lat="46.78505" lon="0.86977">
        <ele>71</ele>
        <time>2021-06-01T17:59:06Z</time>
      </trkpt>
      <trkpt lat="46.78481" lon="0.86985">
        <ele>70</ele>
        <time>2021-06-01T17:59:10Z</time>
      </trkpt>
      <trkpt lat="46.78236" lon="0.86941">
        <ele>60</ele>
        <time>2021-06-01T17:59:54Z</time>
      </trkpt>
      <trkpt lat="46.78209" lon="0.86924">
        <ele>60</ele>
        <time>2021-06-01T17:59:59Z</time>
      </trkpt>
      <trkpt lat="46.78186" lon="0.86889">
        <ele>59</ele>
        <time>2021-06-01T18:00:05Z</time>
      </trkpt>
      <trkpt lat="46.78181" lon="0.86835">
        <ele>59</ele>
        <time>2021-06-01T18:00:12Z</time>
      </trkpt>
      <trkpt lat="46.78182" lon="0.8654">
        <ele>61</ele>
        <time>2021-06-01T18:00:48Z</time>
      </trkpt>
      <trkpt lat="46.78169" lon="0.86488">
        <ele>62</ele>
        <time>2021-06-01T18:00:54Z</time>
      </trkpt>
      <trkpt lat="46.78135" lon="0.86462">
        <ele>63</ele>
        <time>2021-06-01T18:01:01Z</time>
      </trkpt>
      <trkpt lat="46.77957" lon="0.86344">
        <ele>62</ele>
        <time>2021-06-01T18:01:36Z</time>
      </trkpt>
      <trkpt lat="46.77935" lon="0.86337">
        <ele>62</ele>
        <time>2021-06-01T18:01:40Z</time>
      </trkpt>
      <trkpt lat="46.77916" lon="0.86343">
        <ele>62</ele>
        <time>2021-06-01T18:01:43Z</time>
      </trkpt>
      <trkpt lat="46.77876" lon="0.86402">
        <ele>62</ele>
        <time>2021-06-01T18:01:54Z</time>
      </trkpt>
      <trkpt lat="46.77635" lon="0.8682">
        <ele>60</ele>
        <time>2021-06-01T18:03:00Z</time>
      </trkpt>
      <trkpt lat="46.77556" lon="0.8696">
        <ele>62</ele>
        <time>2021-06-01T18:03:22Z</time>
      </trkpt>
      <trkpt lat="46.77508" lon="0.87057">
        <ele>61</ele>
        <time>2021-06-01T18:03:37Z</time>
      </trkpt>
      <trkpt lat="46.77349" lon="0.87489">
        <ele>65</ele>
        <time>2021-06-01T18:04:37Z</time>
      </trkpt>
      <trkpt lat="46.77299" lon="0.87666">
        <ele>75</ele>
        <time>2021-06-01T18:05:00Z</time>
      </trkpt>
      <trkpt lat="46.77263" lon="0.87754">
        <ele>82</ele>
        <time>2021-06-01T18:05:12Z</time>
      </trkpt>
      <trkpt lat="46.77222" lon="0.87843">
        <ele>84</ele>
        <time>2021-06-01T18:05:26Z</time>
      </trkpt>
      <trkpt lat="46.7719" lon="0.87883">
        <ele>88</ele>
        <time>2021-06-01T18:05:33Z</time>
      </trkpt>
      <trkpt lat="46.77164" lon="0.87908">
        <ele>92</ele>
        <time>2021-06-01T18:05:39Z</time>
      </trkpt>
      <trkpt lat="46.7713" lon="0.87913">
        <ele>93</ele>
        <time>2021-06-01T18:05:45Z</time>
      </trkpt>
      <trkpt lat="46.77099" lon="0.87914">
        <ele>94</ele>
        <time>2021-06-01T18:05:50Z</time>
      </trkpt>
      <trkpt lat="46.77073" lon="0.87934">
        <ele>95</ele>
        <time>2021-06-01T18:05:55Z</time>
      </trkpt>
      <trkpt lat="46.77051" lon="0.87969">
        <ele>96</ele>
        <time>2021-06-01T18:06:01Z</time>
      </trkpt>
      <trkpt lat="46.77011" lon="0.88083">
        <ele>96</ele>
        <time>2021-06-01T18:06:17Z</time>
      </trkpt>
      <trkpt lat="46.77006" lon="0.88169">
        <ele>94</ele>
        <time>2021-06-01T18:06:27Z</time>
      </trkpt>
      <trkpt lat="46.76997" lon="0.88207">
        <ele>93</ele>
        <time>2021-06-01T18:06:32Z</time>
      </trkpt>
      <trkpt lat="46.76919" lon="0.88367">
        <ele>89</ele>
        <time>2021-06-01T18:06:56Z</time>
      </trkpt>
      <trkpt lat="46.76892" lon="0.88397">
        <ele>89</ele>
        <time>2021-06-01T18:07:02Z</time>
      </trkpt>
      <trkpt lat="46.76862" lon="0.88425">
        <ele>88</ele>
        <time>2021-06-01T18:07:09Z</time>
      </trkpt>
      <trkpt lat="46.76838" lon="0.88461">
        <ele>88</ele>
        <time>2021-06-01T18:07:15Z</time>
      </trkpt>
      <trkpt lat="46.76809" lon="0.88498">
        <ele>86</ele>
        <time>2021-06-01T18:07:21Z</time>
      </trkpt>
      <trkpt lat="46.76763" lon="0.88532">
        <ele>86</ele>
        <time>2021-06-01T18:07:31Z</time>
      </trkpt>
      <trkpt lat="46.76744" lon="0.88559">
        <ele>85</ele>
        <time>2021-06-01T18:07:35Z</time>
      </trkpt>
      <trkpt lat="46.7673" lon="0.88609">
        <ele>83</ele>
        <time>2021-06-01T18:07:42Z</time>
      </trkpt>
      <trkpt lat="46.76729" lon="0.88686">
        <ele>80</ele>
        <time>2021-06-01T18:07:51Z</time>
      </trkpt>
      <trkpt lat="46.76748" lon="0.88804">
        <ele>77</ele>
        <time>2021-06-01T18:08:06Z</time>
      </trkpt>
      <trkpt lat="46.76748" lon="0.8891">
        <ele>77</ele>
        <time>2021-06-01T18:08:19Z</time>
      </trkpt>
      <trkpt lat="46.76752" lon="0.89024">
        <ele>78</ele>
        <time>2021-06-01T18:08:33Z</time>
      </trkpt>
      <trkpt lat="46.76748" lon="0.89139">
        <ele>77</ele>
        <time>2021-06-01T18:08:47Z</time>
      </trkpt>
      <trkpt lat="46.76741" lon="0.89208">
        <ele>77</ele>
        <time>2021-06-01T18:08:55Z</time>
      </trkpt>
      <trkpt lat="46.76627" lon="0.89201">
        <ele>81</ele>
        <time>2021-06-01T18:09:16Z</time>
      </trkpt>
      <trkpt lat="46.76448" lon="0.89311">
        <ele>80</ele>
        <time>2021-06-01T18:09:50Z</time>
      </trkpt>
      <trkpt lat="46.76359" lon="0.89358">
        <ele>79</ele>
        <time>2021-06-01T18:10:07Z</time>
      </trkpt>
      <trkpt lat="46.76214" lon="0.89419">
        <ele>80</ele>
        <time>2021-06-01T18:10:34Z</time>
      </trkpt>
      <trkpt lat="46.76134" lon="0.89488">
        <ele>79</ele>
        <time>2021-06-01T18:10:51Z</time>
      </trkpt>
      <trkpt lat="46.76093" lon="0.8962">
        <ele>76</ele>
        <time>2021-06-01T18:11:08Z</time>
      </trkpt>
      <trkpt lat="46.76051" lon="0.89712">
        <ele>76</ele>
        <time>2021-06-01T18:11:22Z</time>
      </trkpt>
      <trkpt lat="46.76009" lon="0.89776">
        <ele>78</ele>
        <time>2021-06-01T18:11:33Z</time>
      </trkpt>
      <trkpt lat="46.75985" lon="0.89855">
        <ele>78</ele>
        <time>2021-06-01T18:11:43Z</time>
      </trkpt>
      <trkpt lat="46.75957" lon="0.89967">
        <ele>79</ele>
        <time>2021-06-01T18:11:58Z</time>
      </trkpt>
      <trkpt lat="46.75929" lon="0.90059">
        <ele>80</ele>
        <time>2021-06-01T18:12:10Z</time>
      </trkpt>
      <trkpt lat="46.75779" lon="0.90412">
        <ele>81</ele>
        <time>2021-06-01T18:13:00Z</time>
      </trkpt>
      <trkpt lat="46.75771" lon="0.90437">
        <ele>82</ele>
        <time>2021-06-01T18:13:04Z</time>
      </trkpt>
      <trkpt lat="46.75774" lon="0.90459">
        <ele>82</ele>
        <time>2021-06-01T18:13:07Z</time>
      </trkpt>
      <trkpt lat="46.7579" lon="0.90481">
        <ele>81</ele>
        <time>2021-06-01T18:13:11Z</time>
      </trkpt>
      <trkpt lat="46.75865" lon="0.90553">
        <ele>77</ele>
        <time>2021-06-01T18:13:26Z</time>
      </trkpt>
      <trkpt lat="46.75882" lon="0.90574">
        <ele>76</ele>
        <time>2021-06-01T18:13:30Z</time>
      </trkpt>
      <trkpt lat="46.7589" lon="0.90602">
        <ele>76</ele>
        <time>2021-06-01T18:13:34Z</time>
      </trkpt>
      <trkpt lat="46.75884" lon="0.90632">
        <ele>75</ele>
        <time>2021-06-01T18:13:38Z</time>
      </trkpt>
      <trkpt lat="46.75831" lon="0.90748">
        <ele>76</ele>
        <time>2021-06-01T18:13:55Z</time>
      </trkpt>
      <trkpt lat="46.75823" lon="0.90782">
        <ele>76</ele>
        <time>2021-06-01T18:13:59Z</time>
      </trkpt>
      <trkpt lat="46.75825" lon="0.90812">
        <ele>76</ele>
        <time>2021-06-01T18:14:03Z</time>
      </trkpt>
      <trkpt lat="46.75824" lon="0.90854">
        <ele>76</ele>
        <time>2021-06-01T18:14:08Z</time>
      </trkpt>
      <trkpt lat="46.75813" lon="0.9092">
        <ele>77</ele>
        <time>2021-06-01T18:14:16Z</time>
      </trkpt>
      <trkpt lat="46.75788" lon="0.91018">
        <ele>76</ele>
        <time>2021-06-01T18:14:29Z</time>
      </trkpt>
      <trkpt lat="46.7578" lon="0.91032">
        <ele>77</ele>
        <time>2021-06-01T18:14:31Z</time>
      </trkpt>
      <trkpt lat="46.75769" lon="0.91032">
        <ele>78</ele>
        <time>2021-06-01T18:14:33Z</time>
      </trkpt>
      <trkpt lat="46.7574" lon="0.91025">
        <ele>79</ele>
        <time>2021-06-01T18:14:39Z</time>
      </trkpt>
      <trkpt lat="46.75715" lon="0.91034">
        <ele>79</ele>
        <time>2021-06-01T18:14:43Z</time>
      </trkpt>
      <trkpt lat="46.75646" lon="0.91023">
        <ele>80</ele>
        <time>2021-06-01T18:14:55Z</time>
      </trkpt>
      <trkpt lat="46.75624" lon="0.91031">
        <ele>79</ele>
        <time>2021-06-01T18:15:00Z</time>
      </trkpt>
      <trkpt lat="46.756" lon="0.91051">
        <ele>80</ele>
        <time>2021-06-01T18:15:04Z</time>
      </trkpt>
      <trkpt lat="46.75588" lon="0.91074">
        <ele>80</ele>
        <time>2021-06-01T18:15:08Z</time>
      </trkpt>
      <trkpt lat="46.75591" lon="0.91169">
        <ele>79</ele>
        <time>2021-06-01T18:15:20Z</time>
      </trkpt>
      <trkpt lat="46.75577" lon="0.91232">
        <ele>79</ele>
        <time>2021-06-01T18:15:28Z</time>
      </trkpt>
      <trkpt lat="46.75512" lon="0.91335">
        <ele>78</ele>
        <time>2021-06-01T18:15:45Z</time>
      </trkpt>
      <trkpt lat="46.75435" lon="0.91441">
        <ele>76</ele>
        <time>2021-06-01T18:16:04Z</time>
      </trkpt>
      <trkpt lat="46.75367" lon="0.91561">
        <ele>76</ele>
        <time>2021-06-01T18:16:23Z</time>
      </trkpt>
      <trkpt lat="46.75333" lon="0.91664">
        <ele>76</ele>
        <time>2021-06-01T18:16:36Z</time>
      </trkpt>
      <trkpt lat="46.75258" lon="0.91844">
        <ele>73</ele>
        <time>2021-06-01T18:17:02Z</time>
      </trkpt>
      <trkpt lat="46.75247" lon="0.91957">
        <ele>75</ele>
        <time>2021-06-01T18:17:16Z</time>
      </trkpt>
      <trkpt lat="46.75236" lon="0.91992">
        <ele>76</ele>
        <time>2021-06-01T18:17:21Z</time>
      </trkpt>
      <trkpt lat="46.75216" lon="0.92028">
        <ele>77</ele>
        <time>2021-06-01T18:17:26Z</time>
      </trkpt>
      <trkpt lat="46.7515" lon="0.92112">
        <ele>79</ele>
        <time>2021-06-01T18:17:42Z</time>
      </trkpt>
      <trkpt lat="46.75101" lon="0.92166">
        <ele>80</ele>
        <time>2021-06-01T18:17:53Z</time>
      </trkpt>
      <trkpt lat="46.75044" lon="0.92219">
        <ele>80</ele>
        <time>2021-06-01T18:18:05Z</time>
      </trkpt>
      <trkpt lat="46.74981" lon="0.92285">
        <ele>82</ele>
        <time>2021-06-01T18:18:19Z</time>
      </trkpt>
      <trkpt lat="46.74794" lon="0.92455">
        <ele>86</ele>
        <time>2021-06-01T18:18:58Z</time>
      </trkpt>
      <trkpt lat="46.74768" lon="0.92484">
        <ele>86</ele>
        <time>2021-06-01T18:19:04Z</time>
      </trkpt>
      <trkpt lat="46.74744" lon="0.9252">
        <ele>87</ele>
        <time>2021-06-01T18:19:10Z</time>
      </trkpt>
      <trkpt lat="46.74723" lon="0.92538">
        <ele>87</ele>
        <time>2021-06-01T18:19:14Z</time>
      </trkpt>
      <trkpt lat="46.74661" lon="0.92575">
        <ele>86</ele>
        <time>2021-06-01T18:19:26Z</time>
      </trkpt>
      <trkpt lat="46.74585" lon="0.92681">
        <ele>82</ele>
        <time>2021-06-01T18:19:45Z</time>
      </trkpt>
      <trkpt lat="46.74547" lon="0.92719">
        <ele>82</ele>
        <time>2021-06-01T18:19:53Z</time>
      </trkpt>
      <trkpt lat="46.74533" lon="0.92738">
        <ele>82</ele>
        <time>2021-06-01T18:19:56Z</time>
      </trkpt>
      <trkpt lat="46.7453" lon="0.92762">
        <ele>82</ele>
        <time>2021-06-01T18:19:59Z</time>
      </trkpt>
      <trkpt lat="46.74592" lon="0.92863">
        <ele>81</ele>
        <time>2021-06-01T18:20:16Z</time>
      </trkpt>
      <trkpt lat="46.74614" lon="0.92903">
        <ele>81</ele>
        <time>2021-06-01T18:20:22Z</time>
      </trkpt>
      <trkpt lat="46.74592" lon="0.92953">
        <ele>81</ele>
        <time>2021-06-01T18:20:29Z</time>
      </trkpt>
      <trkpt lat="46.74519" lon="0.93091">
        <ele>77</ele>
        <time>2021-06-01T18:20:51Z</time>
      </trkpt>
      <trkpt lat="46.74375" lon="0.93353">
        <ele>77</ele>
        <time>2021-06-01T18:21:32Z</time>
      </trkpt>
      <trkpt lat="46.74229" lon="0.93631">
        <ele>77</ele>
        <time>2021-06-01T18:22:14Z</time>
      </trkpt>
      <trkpt lat="46.74185" lon="0.93694">
        <ele>78</ele>
        <time>2021-06-01T18:22:25Z</time>
      </trkpt>
      <trkpt lat="46.74129" lon="0.9375">
        <ele>77</ele>
        <time>2021-06-01T18:22:37Z</time>
      </trkpt>
      <trkpt lat="46.74056" lon="0.93802">
        <ele>78</ele>
        <time>2021-06-01T18:22:52Z</time>
      </trkpt>
      <trkpt lat="46.73922" lon="0.93887">
        <ele>81</ele>
        <time>2021-06-01T18:23:18Z</time>
      </trkpt>
      <trkpt lat="46.7385" lon="0.93925">
        <ele>82</ele>
        <time>2021-06-01T18:23:31Z</time>
      </trkpt>
      <trkpt lat="46.73706" lon="0.93983">
        <ele>81</ele>
        <time>2021-06-01T18:23:58Z</time>
      </trkpt>
      <trkpt lat="46.7358" lon="0.94022">
        <ele>82</ele>
        <time>2021-06-01T18:24:21Z</time>
      </trkpt>
      <trkpt lat="46.73535" lon="0.94051">
        <ele>81</ele>
        <time>2021-06-01T18:24:30Z</time>
      </trkpt>
      <trkpt lat="46.73418" lon="0.94095">
        <ele>82</ele>
        <time>2021-06-01T18:24:51Z</time>
      </trkpt>
      <trkpt lat="46.73364" lon="0.94126">
        <ele>81</ele>
        <time>2021-06-01T18:25:02Z</time>
      </trkpt>
      <trkpt lat="46.7331" lon="0.94161">
        <ele>80</ele>
        <time>2021-06-01T18:25:12Z</time>
      </trkpt>
      <trkpt lat="46.73257" lon="0.94181">
        <ele>79</ele>
        <time>2021-06-01T18:25:22Z</time>
      </trkpt>
      <trkpt lat="46.73143" lon="0.94198">
        <ele>79</ele>
        <time>2021-06-01T18:25:42Z</time>
      </trkpt>
      <trkpt lat="46.73076" lon="0.94218">
        <ele>79</ele>
        <time>2021-06-01T18:25:54Z</time>
      </trkpt>
      <trkpt lat="46.73008" lon="0.94232">
        <ele>78</ele>
        <time>2021-06-01T18:26:07Z</time>
      </trkpt>
      <trkpt lat="46.72937" lon="0.94223">
        <ele>79</ele>
        <time>2021-06-01T18:26:19Z</time>
      </trkpt>
      <trkpt lat="46.72872" lon="0.94197">
        <ele>79</ele>
        <time>2021-06-01T18:26:31Z</time>
      </trkpt>
      <trkpt lat="46.72812" lon="0.94168">
        <ele>78</ele>
        <time>2021-06-01T18:26:42Z</time>
      </trkpt>
      <trkpt lat="46.72752" lon="0.94157">
        <ele>78</ele>
        <time>2021-06-01T18:26:53Z</time>
      </trkpt>
      <trkpt lat="46.72696" lon="0.9416">
        <ele>79</ele>
        <time>2021-06-01T18:27:03Z</time>
      </trkpt>
      <trkpt lat="46.72679" lon="0.94164">
        <ele>80</ele>
        <time>2021-06-01T18:27:06Z</time>
      </trkpt>
      <trkpt lat="46.72668" lon="0.94174">
        <ele>80</ele>
        <time>2021-06-01T18:27:09Z</time>
      </trkpt>
      <trkpt lat="46.72659" lon="0.94194">
        <ele>80</ele>
        <time>2021-06-01T18:27:12Z</time>
      </trkpt>
      <trkpt lat="46.72655" lon="0.94219">
        <ele>80</ele>
        <time>2021-06-01T18:27:15Z</time>
      </trkpt>
      <trkpt lat="46.72648" lon="0.9424">
        <ele>80</ele>
        <time>2021-06-01T18:27:17Z</time>
      </trkpt>
      <trkpt lat="46.72632" lon="0.94253">
        <ele>79</ele>
        <time>2021-06-01T18:27:21Z</time>
      </trkpt>
      <trkpt lat="46.7261" lon="0.94264">
        <ele>78</ele>
        <time>2021-06-01T18:27:25Z</time>
      </trkpt>
      <trkpt lat="46.72529" lon="0.94282">
        <ele>76</ele>
        <time>2021-06-01T18:27:39Z</time>
      </trkpt>
      <trkpt lat="46.72463" lon="0.94302">
        <ele>75</ele>
        <time>2021-06-01T18:27:51Z</time>
      </trkpt>
      <trkpt lat="46.72362" lon="0.9435">
        <ele>72</ele>
        <time>2021-06-01T18:28:10Z</time>
      </trkpt>
      <trkpt lat="46.72236" lon="0.94397">
        <ele>72</ele>
        <time>2021-06-01T18:28:33Z</time>
      </trkpt>
      <trkpt lat="46.72173" lon="0.94423">
        <ele>76</ele>
        <time>2021-06-01T18:28:45Z</time>
      </trkpt>
      <trkpt lat="46.72139" lon="0.94441">
        <ele>80</ele>
        <time>2021-06-01T18:28:52Z</time>
      </trkpt>
      <trkpt lat="46.72051" lon="0.94498">
        <ele>80</ele>
        <time>2021-06-01T18:29:09Z</time>
      </trkpt>
      <trkpt lat="46.71999" lon="0.94517">
        <ele>82</ele>
        <time>2021-06-01T18:29:18Z</time>
      </trkpt>
      <trkpt lat="46.71897" lon="0.94549">
        <ele>82</ele>
        <time>2021-06-01T18:29:37Z</time>
      </trkpt>
      <trkpt lat="46.71448" lon="0.94626">
        <ele>84</ele>
        <time>2021-06-01T18:30:57Z</time>
      </trkpt>
      <trkpt lat="46.7138" lon="0.94656">
        <ele>82</ele>
        <time>2021-06-01T18:31:10Z</time>
      </trkpt>
      <trkpt lat="46.71229" lon="0.94731">
        <ele>84</ele>
        <time>2021-06-01T18:31:38Z</time>
      </trkpt>
      <trkpt lat="46.71094" lon="0.94812">
        <ele>84</ele>
        <time>2021-06-01T18:32:04Z</time>
      </trkpt>
      <trkpt lat="46.7103" lon="0.94847">
        <ele>84</ele>
        <time>2021-06-01T18:32:16Z</time>
      </trkpt>
      <trkpt lat="46.7097" lon="0.94887">
        <ele>82</ele>
        <time>2021-06-01T18:32:28Z</time>
      </trkpt>
      <trkpt lat="46.70882" lon="0.94953">
        <ele>80</ele>
        <time>2021-06-01T18:32:46Z</time>
      </trkpt>
      <trkpt lat="46.70804" lon="0.95005">
        <ele>79</ele>
        <time>2021-06-01T18:33:01Z</time>
      </trkpt>
      <trkpt lat="46.70754" lon="0.95031">
        <ele>83</ele>
        <time>2021-06-01T18:33:10Z</time>
      </trkpt>
      <trkpt lat="46.70592" lon="0.95074">
        <ele>83</ele>
        <time>2021-06-01T18:33:40Z</time>
      </trkpt>
      <trkpt lat="46.70483" lon="0.95151">
        <ele>81</ele>
        <time>2021-06-01T18:34:01Z</time>
      </trkpt>
      <trkpt lat="46.70352" lon="0.9528">
        <ele>77</ele>
        <time>2021-06-01T18:34:29Z</time>
      </trkpt>
      <trkpt lat="46.70283" lon="0.95345">
        <ele>75</ele>
        <time>2021-06-01T18:34:44Z</time>
      </trkpt>
      <trkpt lat="46.70244" lon="0.95377">
        <ele>74</ele>
        <time>2021-06-01T18:34:52Z</time>
      </trkpt>
      <trkpt lat="46.70189" lon="0.9539">
        <ele>75</ele>
        <time>2021-06-01T18:35:02Z</time>
      </trkpt>
      <trkpt lat="46.70129" lon="0.95399">
        <ele>78</ele>
        <time>2021-06-01T18:35:13Z</time>
      </trkpt>
      <trkpt lat="46.70099" lon="0.95409">
        <ele>79</ele>
        <time>2021-06-01T18:35:18Z</time>
      </trkpt>
      <trkpt lat="46.70035" lon="0.95492">
        <ele>78</ele>
        <time>2021-06-01T18:35:33Z</time>
      </trkpt>
      <trkpt lat="46.69977" lon="0.95577">
        <ele>78</ele>
        <time>2021-06-01T18:35:48Z</time>
      </trkpt>
      <trkpt lat="46.69901" lon="0.95678">
        <ele>77</ele>
        <time>2021-06-01T18:36:06Z</time>
      </trkpt>
      <trkpt lat="46.69873" lon="0.95676">
        <ele>79</ele>
        <time>2021-06-01T18:36:11Z</time>
      </trkpt>
      <trkpt lat="46.69855" lon="0.9566">
        <ele>81</ele>
        <time>2021-06-01T18:36:15Z</time>
      </trkpt>
      <trkpt lat="46.69808" lon="0.95589">
        <ele>89</ele>
        <time>2021-06-01T18:36:27Z</time>
      </trkpt>
      <trkpt lat="46.69782" lon="0.9556">
        <ele>92</ele>
        <time>2021-06-01T18:36:33Z</time>
      </trkpt>
      <trkpt lat="46.69711" lon="0.95524">
        <ele>94</ele>
        <time>2021-06-01T18:36:46Z</time>
      </trkpt>
      <trkpt lat="46.69552" lon="0.95454">
        <ele>97</ele>
        <time>2021-06-01T18:37:16Z</time>
      </trkpt>
      <trkpt lat="46.69477" lon="0.95414">
        <ele>97</ele>
        <time>2021-06-01T18:37:30Z</time>
      </trkpt>
      <trkpt lat="46.69433" lon="0.95371">
        <ele>97</ele>
        <time>2021-06-01T18:37:39Z</time>
      </trkpt>
      <trkpt lat="46.69331" lon="0.95175">
        <ele>98</ele>
        <time>2021-06-01T18:38:09Z</time>
      </trkpt>
      <trkpt lat="46.69303" lon="0.95127">
        <ele>100</ele>
        <time>2021-06-01T18:38:17Z</time>
      </trkpt>
      <trkpt lat="46.69267" lon="0.95104">
        <ele>101</ele>
        <time>2021-06-01T18:38:24Z</time>
      </trkpt>
      <trkpt lat="46.69209" lon="0.95075">
        <ele>102</ele>
        <time>2021-06-01T18:38:35Z</time>
      </trkpt>
      <trkpt lat="46.69148" lon="0.95058">
        <ele>103</ele>
        <time>2021-06-01T18:38:46Z</time>
      </trkpt>
      <trkpt lat="46.69073" lon="0.95046">
        <ele>105</ele>
        <time>2021-06-01T18:39:00Z</time>
      </trkpt>
      <trkpt lat="46.68999" lon="0.95036">
        <ele>108</ele>
        <time>2021-06-01T18:39:13Z</time>
      </trkpt>
      <trkpt lat="46.6869" lon="0.95006">
        <ele>124</ele>
        <time>2021-06-01T18:40:08Z</time>
      </trkpt>
      <trkpt lat="46.6861" lon="0.94992">
        <ele>127</ele>
        <time>2021-06-01T18:40:22Z</time>
      </trkpt>
      <trkpt lat="46.68531" lon="0.94969">
        <ele>128</ele>
        <time>2021-06-01T18:40:37Z</time>
      </trkpt>
      <trkpt lat="46.68451" lon="0.94942">
        <ele>127</ele>
        <time>2021-06-01T18:40:51Z</time>
      </trkpt>
      <trkpt lat="46.68409" lon="0.94933">
        <ele>127</ele>
        <time>2021-06-01T18:40:59Z</time>
      </trkpt>
      <trkpt lat="46.6839" lon="0.94921">
        <ele>127</ele>
        <time>2021-06-01T18:41:02Z</time>
      </trkpt>
      <trkpt lat="46.68356" lon="0.94888">
        <ele>125</ele>
        <time>2021-06-01T18:41:10Z</time>
      </trkpt>
      <trkpt lat="46.68312" lon="0.94875">
        <ele>125</ele>
        <time>2021-06-01T18:41:18Z</time>
      </trkpt>
      <trkpt lat="46.68192" lon="0.94862">
        <ele>126</ele>
        <time>2021-06-01T18:41:39Z</time>
      </trkpt>
      <trkpt lat="46.68126" lon="0.94851">
        <ele>128</ele>
        <time>2021-06-01T18:41:51Z</time>
      </trkpt>
      <trkpt lat="46.68002" lon="0.9484">
        <ele>126</ele>
        <time>2021-06-01T18:42:13Z</time>
      </trkpt>
      <trkpt lat="46.67862" lon="0.94673">
        <ele>123</ele>
        <time>2021-06-01T18:42:45Z</time>
      </trkpt>
      <trkpt lat="46.67842" lon="0.9467">
        <ele>122</ele>
        <time>2021-06-01T18:42:49Z</time>
      </trkpt>
      <trkpt lat="46.67694" lon="0.94682">
        <ele>119</ele>
        <time>2021-06-01T18:43:15Z</time>
      </trkpt>
      <trkpt lat="46.67677" lon="0.94692">
        <ele>120</ele>
        <time>2021-06-01T18:43:18Z</time>
      </trkpt>
      <trkpt lat="46.67645" lon="0.94731">
        <ele>121</ele>
        <time>2021-06-01T18:43:26Z</time>
      </trkpt>
      <trkpt lat="46.67552" lon="0.94887">
        <ele>124</ele>
        <time>2021-06-01T18:43:51Z</time>
      </trkpt>
      <trkpt lat="46.67515" lon="0.94941">
        <ele>126</ele>
        <time>2021-06-01T18:44:00Z</time>
      </trkpt>
      <trkpt lat="46.6749" lon="0.94962">
        <ele>127</ele>
        <time>2021-06-01T18:44:06Z</time>
      </trkpt>
      <trkpt lat="46.67375" lon="0.95023">
        <ele>130</ele>
        <time>2021-06-01T18:44:27Z</time>
      </trkpt>
      <trkpt lat="46.67354" lon="0.95037">
        <ele>130</ele>
        <time>2021-06-01T18:44:31Z</time>
      </trkpt>
      <trkpt lat="46.67283" lon="0.95115">
        <ele>127</ele>
        <time>2021-06-01T18:44:47Z</time>
      </trkpt>
      <trkpt lat="46.67218" lon="0.9518">
        <ele>126</ele>
        <time>2021-06-01T18:45:01Z</time>
      </trkpt>
      <trkpt lat="46.67172" lon="0.95234">
        <ele>124</ele>
        <time>2021-06-01T18:45:12Z</time>
      </trkpt>
      <trkpt lat="46.67165" lon="0.95603">
        <ele>128</ele>
        <time>2021-06-01T18:45:57Z</time>
      </trkpt>
      <trkpt lat="46.6714" lon="0.96074">
        <ele>124</ele>
        <time>2021-06-01T18:46:54Z</time>
      </trkpt>
      <trkpt lat="46.67132" lon="0.96189">
        <ele>124</ele>
        <time>2021-06-01T18:47:09Z</time>
      </trkpt>
      <trkpt lat="46.67121" lon="0.96228">
        <ele>124</ele>
        <time>2021-06-01T18:47:14Z</time>
      </trkpt>
      <trkpt lat="46.67089" lon="0.96289">
        <ele>124</ele>
        <time>2021-06-01T18:47:23Z</time>
      </trkpt>
      <trkpt lat="46.6701" lon="0.96417">
        <ele>123</ele>
        <time>2021-06-01T18:47:44Z</time>
      </trkpt>
      <trkpt lat="46.66784" lon="0.96802">
        <ele>123</ele>
        <time>2021-06-01T18:48:46Z</time>
      </trkpt>
      <trkpt lat="46.66761" lon="0.96918">
        <ele>123</ele>
        <time>2021-06-01T18:49:01Z</time>
      </trkpt>
      <trkpt lat="46.66709" lon="0.9702">
        <ele>120</ele>
        <time>2021-06-01T18:49:16Z</time>
      </trkpt>
      <trkpt lat="46.66612" lon="0.97191">
        <ele>115</ele>
        <time>2021-06-01T18:49:43Z</time>
      </trkpt>
      <trkpt lat="46.66597" lon="0.97242">
        <ele>113</ele>
        <time>2021-06-01T18:49:50Z</time>
      </trkpt>
      <trkpt lat="46.66584" lon="0.97482">
        <ele>112</ele>
        <time>2021-06-01T18:50:20Z</time>
      </trkpt>
      <trkpt lat="46.66612" lon="0.97901">
        <ele>107</ele>
        <time>2021-06-01T18:51:11Z</time>
      </trkpt>
      <trkpt lat="46.66618" lon="0.97962">
        <ele>106</ele>
        <time>2021-06-01T18:51:18Z</time>
      </trkpt>
      <trkpt lat="46.6664" lon="0.9808">
        <ele>102</ele>
        <time>2021-06-01T18:51:33Z</time>
      </trkpt>
      <trkpt lat="46.66637" lon="0.98139">
        <ele>102</ele>
        <time>2021-06-01T18:51:41Z</time>
      </trkpt>
      <trkpt lat="46.66623" lon="0.98183">
        <ele>103</ele>
        <time>2021-06-01T18:51:47Z</time>
      </trkpt>
      <trkpt lat="46.66605" lon="0.98195">
        <ele>103</ele>
        <time>2021-06-01T18:51:50Z</time>
      </trkpt>
      <trkpt lat="46.66543" lon="0.98311">
        <ele>110</ele>
        <time>2021-06-01T18:52:08Z</time>
      </trkpt>
      <trkpt lat="46.66466" lon="0.9874">
        <ele>112</ele>
        <time>2021-06-01T18:53:02Z</time>
      </trkpt>
      <trkpt lat="46.66444" lon="0.98935">
        <ele>114</ele>
        <time>2021-06-01T18:53:26Z</time>
      </trkpt>
      <trkpt lat="46.66433" lon="0.99005">
        <ele>115</ele>
        <time>2021-06-01T18:53:35Z</time>
      </trkpt>
      <trkpt lat="46.66375" lon="0.99309">
        <ele>116</ele>
        <time>2021-06-01T18:54:14Z</time>
      </trkpt>
      <trkpt lat="46.66374" lon="0.99356">
        <ele>115</ele>
        <time>2021-06-01T18:54:19Z</time>
      </trkpt>
      <trkpt lat="46.66479" lon="0.99773">
        <ele>114</ele>
        <time>2021-06-01T18:55:14Z</time>
      </trkpt>
      <trkpt lat="46.6651" lon="0.99817">
        <ele>113</ele>
        <time>2021-06-01T18:55:21Z</time>
      </trkpt>
      <trkpt lat="46.66519" lon="0.99866">
        <ele>112</ele>
        <time>2021-06-01T18:55:27Z</time>
      </trkpt>
      <trkpt lat="46.66521" lon="0.99922">
        <ele>112</ele>
        <time>2021-06-01T18:55:34Z</time>
      </trkpt>
      <trkpt lat="46.66509" lon="0.99999">
        <ele>111</ele>
        <time>2021-06-01T18:55:44Z</time>
      </trkpt>
      <trkpt lat="46.6648" lon="1.00106">
        <ele>111</ele>
        <time>2021-06-01T18:55:58Z</time>
      </trkpt>
      <trkpt lat="46.66459" lon="1.00193">
        <ele>111</ele>
        <time>2021-06-01T18:56:09Z</time>
      </trkpt>
      <trkpt lat="46.66442" lon="1.00276">
        <ele>109</ele>
        <time>2021-06-01T18:56:20Z</time>
      </trkpt>
      <trkpt lat="46.6641" lon="1.00362">
        <ele>106</ele>
        <time>2021-06-01T18:56:32Z</time>
      </trkpt>
      <trkpt lat="46.66357" lon="1.00326">
        <ele>105</ele>
        <time>2021-06-01T18:56:42Z</time>
      </trkpt>
      <trkpt lat="46.66327" lon="1.00268">
        <ele>107</ele>
        <time>2021-06-01T18:56:51Z</time>
      </trkpt>
      <trkpt lat="46.66312" lon="1.00219">
        <ele>108</ele>
        <time>2021-06-01T18:56:58Z</time>
      </trkpt>
      <trkpt lat="46.66285" lon="1.00195">
        <ele>107</ele>
        <time>2021-06-01T18:57:03Z</time>
      </trkpt>
      <trkpt lat="46.66257" lon="1.00185">
        <ele>105</ele>
        <time>2021-06-01T18:57:08Z</time>
      </trkpt>
      <trkpt lat="46.66231" lon="1.0019">
        <ele>104</ele>
        <time>2021-06-01T18:57:13Z</time>
      </trkpt>
      <trkpt lat="46.662" lon="1.00217">
        <ele>103</ele>
        <time>2021-06-01T18:57:19Z</time>
      </trkpt>
      <trkpt lat="46.65962" lon="1.00444">
        <ele>114</ele>
        <time>2021-06-01T18:58:10Z</time>
      </trkpt>
      <trkpt lat="46.6589" lon="1.00485">
        <ele>117</ele>
        <time>2021-06-01T18:58:24Z</time>
      </trkpt>
      <trkpt lat="46.6585" lon="1.005">
        <ele>118</ele>
        <time>2021-06-01T18:58:31Z</time>
      </trkpt>
      <trkpt lat="46.65795" lon="1.00515">
        <ele>119</ele>
        <time>2021-06-01T18:58:41Z</time>
      </trkpt>
      <trkpt lat="46.65736" lon="1.00527">
        <ele>120</ele>
        <time>2021-06-01T18:58:52Z</time>
      </trkpt>
      <trkpt lat="46.65604" lon="1.00548">
        <ele>126</ele>
        <time>2021-06-01T18:59:15Z</time>
      </trkpt>
      <trkpt lat="46.65557" lon="1.0055">
        <ele>127</ele>
        <time>2021-06-01T18:59:24Z</time>
      </trkpt>
      <trkpt lat="46.65439" lon="1.00529">
        <ele>129</ele>
        <time>2021-06-01T18:59:45Z</time>
      </trkpt>
      <trkpt lat="46.65416" lon="1.00538">
        <ele>129</ele>
        <time>2021-06-01T18:59:49Z</time>
      </trkpt>
      <trkpt lat="46.65393" lon="1.00576">
        <ele>130</ele>
        <time>2021-06-01T18:59:55Z</time>
      </trkpt>
      <trkpt lat="46.65366" lon="1.00651">
        <ele>131</ele>
        <time>2021-06-01T19:00:06Z</time>
      </trkpt>
      <trkpt lat="46.65322" lon="1.0075">
        <ele>131</ele>
        <time>2021-06-01T19:00:20Z</time>
      </trkpt>
      <trkpt lat="46.65302" lon="1.00771">
        <ele>129</ele>
        <time>2021-06-01T19:00:24Z</time>
      </trkpt>
      <trkpt lat="46.65197" lon="1.00816">
        <ele>126</ele>
        <time>2021-06-01T19:00:44Z</time>
      </trkpt>
      <trkpt lat="46.65154" lon="1.00849">
        <ele>125</ele>
        <time>2021-06-01T19:00:53Z</time>
      </trkpt>
      <trkpt lat="46.65099" lon="1.00908">
        <ele>124</ele>
        <time>2021-06-01T19:01:05Z</time>
      </trkpt>
      <trkpt lat="46.65048" lon="1.01006">
        <ele>122</ele>
        <time>2021-06-01T19:01:20Z</time>
      </trkpt>
      <trkpt lat="46.65022" lon="1.01087">
        <ele>118</ele>
        <time>2021-06-01T19:01:31Z</time>
      </trkpt>
      <trkpt lat="46.65005" lon="1.01183">
        <ele>114</ele>
        <time>2021-06-01T19:01:43Z</time>
      </trkpt>
      <trkpt lat="46.65003" lon="1.0124">
        <ele>115</ele>
        <time>2021-06-01T19:01:50Z</time>
      </trkpt>
      <trkpt lat="46.6503" lon="1.01367">
        <ele>119</ele>
        <time>2021-06-01T19:02:06Z</time>
      </trkpt>
      <trkpt lat="46.65082" lon="1.01644">
        <ele>129</ele>
        <time>2021-06-01T19:02:41Z</time>
      </trkpt>
      <trkpt lat="46.65082" lon="1.01694">
        <ele>129</ele>
        <time>2021-06-01T19:02:47Z</time>
      </trkpt>
      <trkpt lat="46.65067" lon="1.01746">
        <ele>130</ele>
        <time>2021-06-01T19:02:54Z</time>
      </trkpt>
      <trkpt lat="46.65004" lon="1.01921">
        <ele>128</ele>
        <time>2021-06-01T19:03:18Z</time>
      </trkpt>
      <trkpt lat="46.64933" lon="1.02101">
        <ele>122</ele>
        <time>2021-06-01T19:03:44Z</time>
      </trkpt>
      <trkpt lat="46.64917" lon="1.02133">
        <ele>121</ele>
        <time>2021-06-01T19:03:48Z</time>
      </trkpt>
      <trkpt lat="46.64896" lon="1.02162">
        <ele>119</ele>
        <time>2021-06-01T19:03:53Z</time>
      </trkpt>
      <trkpt lat="46.64819" lon="1.02204">
        <ele>116</ele>
        <time>2021-06-01T19:04:08Z</time>
      </trkpt>
      <trkpt lat="46.64777" lon="1.02221">
        <ele>113</ele>
        <time>2021-06-01T19:04:16Z</time>
      </trkpt>
      <trkpt lat="46.64759" lon="1.02239">
        <ele>110</ele>
        <time>2021-06-01T19:04:20Z</time>
      </trkpt>
      <trkpt lat="46.64747" lon="1.02259">
        <ele>108</ele>
        <time>2021-06-01T19:04:23Z</time>
      </trkpt>
      <trkpt lat="46.64724" lon="1.02288">
        <ele>106</ele>
        <time>2021-06-01T19:04:28Z</time>
      </trkpt>
      <trkpt lat="46.64695" lon="1.02314">
        <ele>104</ele>
        <time>2021-06-01T19:04:34Z</time>
      </trkpt>
      <trkpt lat="46.64671" lon="1.0234">
        <ele>103</ele>
        <time>2021-06-01T19:04:40Z</time>
      </trkpt>
      <trkpt lat="46.64553" lon="1.02536">
        <ele>94</ele>
        <time>2021-06-01T19:05:12Z</time>
      </trkpt>
      <trkpt lat="46.64544" lon="1.02579">
        <ele>93</ele>
        <time>2021-06-01T19:05:17Z</time>
      </trkpt>
      <trkpt lat="46.64547" lon="1.02629">
        <ele>91</ele>
        <time>2021-06-01T19:05:23Z</time>
      </trkpt>
      <trkpt lat="46.64544" lon="1.02662">
        <ele>90</ele>
        <time>2021-06-01T19:05:27Z</time>
      </trkpt>
      <trkpt lat="46.64533" lon="1.02693">
        <ele>89</ele>
        <time>2021-06-01T19:05:32Z</time>
      </trkpt>
      <trkpt lat="46.64484" lon="1.02772">
        <ele>87</ele>
        <time>2021-06-01T19:05:45Z</time>
      </trkpt>
      <trkpt lat="46.64476" lon="1.02806">
        <ele>87</ele>
        <time>2021-06-01T19:05:49Z</time>
      </trkpt>
      <trkpt lat="46.64471" lon="1.02925">
        <ele>86</ele>
        <time>2021-06-01T19:06:04Z</time>
      </trkpt>
      <trkpt lat="46.64463" lon="1.03">
        <ele>86</ele>
        <time>2021-06-01T19:06:13Z</time>
      </trkpt>
      <trkpt lat="46.6443" lon="1.03127">
        <ele>86</ele>
        <time>2021-06-01T19:06:29Z</time>
      </trkpt>
      <trkpt lat="46.64425" lon="1.03197">
        <ele>86</ele>
        <time>2021-06-01T19:06:38Z</time>
      </trkpt>
      <trkpt lat="46.64416" lon="1.03273">
        <ele>86</ele>
        <time>2021-06-01T19:06:47Z</time>
      </trkpt>
      <trkpt lat="46.64398" lon="1.0335">
        <ele>86</ele>
        <time>2021-06-01T19:06:57Z</time>
      </trkpt>
      <trkpt lat="46.64288" lon="1.03738">
        <ele>88</ele>
        <time>2021-06-01T19:07:49Z</time>
      </trkpt>
      <trkpt lat="46.64253" lon="1.03781">
        <ele>91</ele>
        <time>2021-06-01T19:07:57Z</time>
      </trkpt>
      <trkpt lat="46.64112" lon="1.03937">
        <ele>94</ele>
        <time>2021-06-01T19:08:28Z</time>
      </trkpt>
      <trkpt lat="46.64062" lon="1.04008">
        <ele>94</ele>
        <time>2021-06-01T19:08:41Z</time>
      </trkpt>
      <trkpt lat="46.6403" lon="1.04071">
        <ele>94</ele>
        <time>2021-06-01T19:08:50Z</time>
      </trkpt>
      <trkpt lat="46.63989" lon="1.0413">
        <ele>94</ele>
        <time>2021-06-01T19:09:01Z</time>
      </trkpt>
      <trkpt lat="46.63843" lon="1.04329">
        <ele>102</ele>
        <time>2021-06-01T19:09:36Z</time>
      </trkpt>
      <trkpt lat="46.6375" lon="1.04467">
        <ele>105</ele>
        <time>2021-06-01T19:10:00Z</time>
      </trkpt>
      <trkpt lat="46.63655" lon="1.046">
        <ele>108</ele>
        <time>2021-06-01T19:10:23Z</time>
      </trkpt>
      <trkpt lat="46.63559" lon="1.0472">
        <ele>108</ele>
        <time>2021-06-01T19:10:46Z</time>
      </trkpt>
      <trkpt lat="46.6354" lon="1.04749">
        <ele>108</ele>
        <time>2021-06-01T19:10:51Z</time>
      </trkpt>
      <trkpt lat="46.63532" lon="1.04788">
        <ele>107</ele>
        <time>2021-06-01T19:10:56Z</time>
      </trkpt>
      <trkpt lat="46.63527" lon="1.04833">
        <ele>106</ele>
        <time>2021-06-01T19:11:01Z</time>
      </trkpt>
      <trkpt lat="46.6351" lon="1.04849">
        <ele>106</ele>
        <time>2021-06-01T19:11:05Z</time>
      </trkpt>
      <trkpt lat="46.63449" lon="1.04877">
        <ele>106</ele>
        <time>2021-06-01T19:11:16Z</time>
      </trkpt>
      <trkpt lat="46.63425" lon="1.04912">
        <ele>106</ele>
        <time>2021-06-01T19:11:22Z</time>
      </trkpt>
      <trkpt lat="46.6333" lon="1.05074">
        <ele>111</ele>
        <time>2021-06-01T19:11:48Z</time>
      </trkpt>
      <trkpt lat="46.63306" lon="1.05105">
        <ele>111</ele>
        <time>2021-06-01T19:11:54Z</time>
      </trkpt>
      <trkpt lat="46.62954" lon="1.05457">
        <ele>101</ele>
        <time>2021-06-01T19:13:10Z</time>
      </trkpt>
      <trkpt lat="46.63075" lon="1.05805">
        <ele>90</ele>
        <time>2021-06-01T19:13:58Z</time>
      </trkpt>
      <trkpt lat="46.63081" lon="1.05845">
        <ele>87</ele>
        <time>2021-06-01T19:14:03Z</time>
      </trkpt>
      <trkpt lat="46.63076" lon="1.05886">
        <ele>86</ele>
        <time>2021-06-01T19:14:08Z</time>
      </trkpt>
      <trkpt lat="46.63062" lon="1.05932">
        <ele>87</ele>
        <time>2021-06-01T19:14:14Z</time>
      </trkpt>
      <trkpt lat="46.63038" lon="1.0598">
        <ele>91</ele>
        <time>2021-06-01T19:14:21Z</time>
      </trkpt>
      <trkpt lat="46.63021" lon="1.06033">
        <ele>90</ele>
        <time>2021-06-01T19:14:28Z</time>
      </trkpt>
      <trkpt lat="46.6299" lon="1.06177">
        <ele>85</ele>
        <time>2021-06-01T19:14:47Z</time>
      </trkpt>
      <trkpt lat="46.62995" lon="1.06198">
        <ele>83</ele>
        <time>2021-06-01T19:14:49Z</time>
      </trkpt>
      <trkpt lat="46.63094" lon="1.06233">
        <ele>77</ele>
        <time>2021-06-01T19:15:07Z</time>
      </trkpt>
      <trkpt lat="46.63121" lon="1.06134">
        <ele>77</ele>
        <time>2021-06-01T19:15:20Z</time>
      </trkpt>
      <trkpt lat="46.63183" lon="1.0598">
        <ele>75</ele>
        <time>2021-06-01T19:15:42Z</time>
      </trkpt>
      <trkpt lat="46.63298" lon="1.05791">
        <ele>75</ele>
        <time>2021-06-01T19:16:13Z</time>
      </trkpt>
      <trkpt lat="46.63328" lon="1.05746">
        <ele>74</ele>
        <time>2021-06-01T19:16:21Z</time>
      </trkpt>
      <trkpt lat="46.63364" lon="1.05728">
        <ele>75</ele>
        <time>2021-06-01T19:16:28Z</time>
      </trkpt>
      <trkpt lat="46.63404" lon="1.05731">
        <ele>76</ele>
        <time>2021-06-01T19:16:35Z</time>
      </trkpt>
      <trkpt lat="46.63438" lon="1.05759">
        <ele>77</ele>
        <time>2021-06-01T19:16:42Z</time>
      </trkpt>
      <trkpt lat="46.63494" lon="1.05829">
        <ele>79</ele>
        <time>2021-06-01T19:16:55Z</time>
      </trkpt>
      <trkpt lat="46.63552" lon="1.05895">
        <ele>79</ele>
        <time>2021-06-01T19:17:08Z</time>
      </trkpt>
      <trkpt lat="46.63668" lon="1.0573">
        <ele>80</ele>
        <time>2021-06-01T19:17:37Z</time>
      </trkpt>
      <trkpt lat="46.63752" lon="1.05625">
        <ele>78</ele>
        <time>2021-06-01T19:17:56Z</time>
      </trkpt>
      <trkpt lat="46.63792" lon="1.05581">
        <ele>77</ele>
        <time>2021-06-01T19:18:05Z</time>
      </trkpt>
      <trkpt lat="46.63813" lon="1.05565">
        <ele>76</ele>
        <time>2021-06-01T19:18:10Z</time>
      </trkpt>
      <trkpt lat="46.64026" lon="1.05437">
        <ele>80</ele>
        <time>2021-06-01T19:18:51Z</time>
      </trkpt>
      <trkpt lat="46.64346" lon="1.05237">
        <ele>84</ele>
        <time>2021-06-01T19:19:53Z</time>
      </trkpt>
      <trkpt lat="46.64371" lon="1.05209">
        <ele>86</ele>
        <time>2021-06-01T19:19:58Z</time>
      </trkpt>
      <trkpt lat="46.64397" lon="1.05174">
        <ele>88</ele>
        <time>2021-06-01T19:20:04Z</time>
      </trkpt>
      <trkpt lat="46.64428" lon="1.05104">
        <ele>87</ele>
        <time>2021-06-01T19:20:15Z</time>
      </trkpt>
      <trkpt lat="46.64477" lon="1.04971">
        <ele>90</ele>
        <time>2021-06-01T19:20:33Z</time>
      </trkpt>
      <trkpt lat="46.64511" lon="1.04805">
        <ele>83</ele>
        <time>2021-06-01T19:20:54Z</time>
      </trkpt>
      <trkpt lat="46.64519" lon="1.04703">
        <ele>80</ele>
        <time>2021-06-01T19:21:07Z</time>
      </trkpt>
      <trkpt lat="46.64519" lon="1.04528">
        <ele>81</ele>
        <time>2021-06-01T19:21:28Z</time>
      </trkpt>
      <trkpt lat="46.64534" lon="1.04401">
        <ele>84</ele>
        <time>2021-06-01T19:21:44Z</time>
      </trkpt>
      <trkpt lat="46.64548" lon="1.0425">
        <ele>85</ele>
        <time>2021-06-01T19:22:02Z</time>
      </trkpt>
      <trkpt lat="46.64606" lon="1.03837">
        <ele>81</ele>
        <time>2021-06-01T19:22:54Z</time>
      </trkpt>
      <trkpt lat="46.64634" lon="1.03699">
        <ele>83</ele>
        <time>2021-06-01T19:23:12Z</time>
      </trkpt>
      <trkpt lat="46.64678" lon="1.03553">
        <ele>84</ele>
        <time>2021-06-01T19:23:31Z</time>
      </trkpt>
      <trkpt lat="46.64726" lon="1.03406">
        <ele>84</ele>
        <time>2021-06-01T19:23:51Z</time>
      </trkpt>
      <trkpt lat="46.64786" lon="1.0317">
        <ele>80</ele>
        <time>2021-06-01T19:24:22Z</time>
      </trkpt>
      <trkpt lat="46.64833" lon="1.03051">
        <ele>82</ele>
        <time>2021-06-01T19:24:38Z</time>
      </trkpt>
      <trkpt lat="46.64966" lon="1.02744">
        <ele>84</ele>
        <time>2021-06-01T19:25:23Z</time>
      </trkpt>
      <trkpt lat="46.65042" lon="1.02602">
        <ele>85</ele>
        <time>2021-06-01T19:25:45Z</time>
      </trkpt>
      <trkpt lat="46.65119" lon="1.02472">
        <ele>85</ele>
        <time>2021-06-01T19:26:06Z</time>
      </trkpt>
      <trkpt lat="46.65174" lon="1.02413">
        <ele>85</ele>
        <time>2021-06-01T19:26:18Z</time>
      </trkpt>
      <trkpt lat="46.6547" lon="1.02198">
        <ele>83</ele>
        <time>2021-06-01T19:27:17Z</time>
      </trkpt>
      <trkpt lat="46.6555" lon="1.02155">
        <ele>82</ele>
        <time>2021-06-01T19:27:32Z</time>
      </trkpt>
      <trkpt lat="46.65591" lon="1.02129">
        <ele>81</ele>
        <time>2021-06-01T19:27:40Z</time>
      </trkpt>
      <trkpt lat="46.65791" lon="1.02039">
        <ele>79</ele>
        <time>2021-06-01T19:28:17Z</time>
      </trkpt>
      <trkpt lat="46.65877" lon="1.01994">
        <ele>79</ele>
        <time>2021-06-01T19:28:33Z</time>
      </trkpt>
      <trkpt lat="46.65939" lon="1.01941">
        <ele>78</ele>
        <time>2021-06-01T19:28:46Z</time>
      </trkpt>
      <trkpt lat="46.66077" lon="1.01878">
        <ele>79</ele>
        <time>2021-06-01T19:29:12Z</time>
      </trkpt>
      <trkpt lat="46.66162" lon="1.01819">
        <ele>77</ele>
        <time>2021-06-01T19:29:29Z</time>
      </trkpt>
      <trkpt lat="46.66246" lon="1.01746">
        <ele>76</ele>
        <time>2021-06-01T19:29:46Z</time>
      </trkpt>
      <trkpt lat="46.66343" lon="1.01644">
        <ele>76</ele>
        <time>2021-06-01T19:30:07Z</time>
      </trkpt>
      <trkpt lat="46.66392" lon="1.01602">
        <ele>77</ele>
        <time>2021-06-01T19:30:17Z</time>
      </trkpt>
      <trkpt lat="46.66492" lon="1.01532">
        <ele>78</ele>
        <time>2021-06-01T19:30:37Z</time>
      </trkpt>
      <trkpt lat="46.666" lon="1.0145">
        <ele>77</ele>
        <time>2021-06-01T19:30:59Z</time>
      </trkpt>
      <trkpt lat="46.66713" lon="1.01355">
        <ele>76</ele>
        <time>2021-06-01T19:31:22Z</time>
      </trkpt>
      <trkpt lat="46.66877" lon="1.01205">
        <ele>80</ele>
        <time>2021-06-01T19:31:57Z</time>
      </trkpt>
      <trkpt lat="46.66921" lon="1.01144">
        <ele>83</ele>
        <time>2021-06-01T19:32:07Z</time>
      </trkpt>
      <trkpt lat="46.66968" lon="1.00984">
        <ele>86</ele>
        <time>2021-06-01T19:32:29Z</time>
      </trkpt>
      <trkpt lat="46.67038" lon="1.0076">
        <ele>90</ele>
        <time>2021-06-01T19:32:59Z</time>
      </trkpt>
      <trkpt lat="46.67089" lon="1.00436">
        <ele>88</ele>
        <time>2021-06-01T19:33:39Z</time>
      </trkpt>
      <trkpt lat="46.67098" lon="1.00165">
        <ele>86</ele>
        <time>2021-06-01T19:34:12Z</time>
      </trkpt>
      <trkpt lat="46.67123" lon="0.99928">
        <ele>84</ele>
        <time>2021-06-01T19:34:42Z</time>
      </trkpt>
      <trkpt lat="46.67138" lon="0.99847">
        <ele>86</ele>
        <time>2021-06-01T19:34:52Z</time>
      </trkpt>
      <trkpt lat="46.67153" lon="0.99655">
        <ele>83</ele>
        <time>2021-06-01T19:35:15Z</time>
      </trkpt>
      <trkpt lat="46.67154" lon="0.99488">
        <ele>83</ele>
        <time>2021-06-01T19:35:36Z</time>
      </trkpt>
      <trkpt lat="46.67162" lon="0.99419">
        <ele>79</ele>
        <time>2021-06-01T19:35:44Z</time>
      </trkpt>
      <trkpt lat="46.67197" lon="0.9931">
        <ele>80</ele>
        <time>2021-06-01T19:35:59Z</time>
      </trkpt>
      <trkpt lat="46.67216" lon="0.99222">
        <ele>83</ele>
        <time>2021-06-01T19:36:10Z</time>
      </trkpt>
      <trkpt lat="46.67229" lon="0.99179">
        <ele>84</ele>
        <time>2021-06-01T19:36:16Z</time>
      </trkpt>
      <trkpt lat="46.67256" lon="0.99118">
        <ele>85</ele>
        <time>2021-06-01T19:36:25Z</time>
      </trkpt>
      <trkpt lat="46.67279" lon="0.99003">
        <ele>84</ele>
        <time>2021-06-01T19:36:40Z</time>
      </trkpt>
      <trkpt lat="46.67299" lon="0.98926">
        <ele>84</ele>
        <time>2021-06-01T19:36:50Z</time>
      </trkpt>
      <trkpt lat="46.6734" lon="0.98821">
        <ele>89</ele>
        <time>2021-06-01T19:37:04Z</time>
      </trkpt>
      <trkpt lat="46.67407" lon="0.98602">
        <ele>85</ele>
        <time>2021-06-01T19:37:34Z</time>
      </trkpt>
      <trkpt lat="46.67441" lon="0.98502">
        <ele>83</ele>
        <time>2021-06-01T19:37:47Z</time>
      </trkpt>
      <trkpt lat="46.67548" lon="0.98266">
        <ele>78</ele>
        <time>2021-06-01T19:38:22Z</time>
      </trkpt>
      <trkpt lat="46.67597" lon="0.98216">
        <ele>79</ele>
        <time>2021-06-01T19:38:32Z</time>
      </trkpt>
      <trkpt lat="46.67678" lon="0.98121">
        <ele>80</ele>
        <time>2021-06-01T19:38:51Z</time>
      </trkpt>
      <trkpt lat="46.67966" lon="0.97843">
        <ele>81</ele>
        <time>2021-06-01T19:39:52Z</time>
      </trkpt>
      <trkpt lat="46.68054" lon="0.97738">
        <ele>79</ele>
        <time>2021-06-01T19:40:13Z</time>
      </trkpt>
      <trkpt lat="46.68141" lon="0.97657">
        <ele>79</ele>
        <time>2021-06-01T19:40:31Z</time>
      </trkpt>
      <trkpt lat="46.68236" lon="0.97525">
        <ele>78</ele>
        <time>2021-06-01T19:40:54Z</time>
      </trkpt>
      <trkpt lat="46.68274" lon="0.97486">
        <ele>77</ele>
        <time>2021-06-01T19:41:03Z</time>
      </trkpt>
      <trkpt lat="46.68454" lon="0.97381">
        <ele>80</ele>
        <time>2021-06-01T19:41:37Z</time>
      </trkpt>
      <trkpt lat="46.68543" lon="0.97354">
        <ele>81</ele>
        <time>2021-06-01T19:41:53Z</time>
      </trkpt>
      <trkpt lat="46.6864" lon="0.97295">
        <ele>81</ele>
        <time>2021-06-01T19:42:12Z</time>
      </trkpt>
      <trkpt lat="46.68723" lon="0.97236">
        <ele>81</ele>
        <time>2021-06-01T19:42:28Z</time>
      </trkpt>
      <trkpt lat="46.68829" lon="0.97184">
        <ele>82</ele>
        <time>2021-06-01T19:42:48Z</time>
      </trkpt>
      <trkpt lat="46.68932" lon="0.97119">
        <ele>83</ele>
        <time>2021-06-01T19:43:08Z</time>
      </trkpt>
      <trkpt lat="46.69053" lon="0.97036">
        <ele>81</ele>
        <time>2021-06-01T19:43:32Z</time>
      </trkpt>
      <trkpt lat="46.69161" lon="0.96943">
        <ele>81</ele>
        <time>2021-06-01T19:43:54Z</time>
      </trkpt>
      <trkpt lat="46.69254" lon="0.96836">
        <ele>78</ele>
        <time>2021-06-01T19:44:15Z</time>
      </trkpt>
      <trkpt lat="46.69428" lon="0.96648">
        <ele>79</ele>
        <time>2021-06-01T19:44:54Z</time>
      </trkpt>
      <trkpt lat="46.69543" lon="0.96547">
        <ele>76</ele>
        <time>2021-06-01T19:45:18Z</time>
      </trkpt>
      <trkpt lat="46.69661" lon="0.96476">
        <ele>76</ele>
        <time>2021-06-01T19:45:41Z</time>
      </trkpt>
      <trkpt lat="46.69818" lon="0.96372">
        <ele>80</ele>
        <time>2021-06-01T19:46:11Z</time>
      </trkpt>
      <trkpt lat="46.69869" lon="0.96341">
        <ele>80</ele>
        <time>2021-06-01T19:46:21Z</time>
      </trkpt>
      <trkpt lat="46.69934" lon="0.96279">
        <ele>79</ele>
        <time>2021-06-01T19:46:35Z</time>
      </trkpt>
      <trkpt lat="46.70052" lon="0.9613">
        <ele>77</ele>
        <time>2021-06-01T19:47:03Z</time>
      </trkpt>
      <trkpt lat="46.70097" lon="0.96086">
        <ele>73</ele>
        <time>2021-06-01T19:47:12Z</time>
      </trkpt>
      <trkpt lat="46.70144" lon="0.96045">
        <ele>74</ele>
        <time>2021-06-01T19:47:22Z</time>
      </trkpt>
      <trkpt lat="46.70245" lon="0.95939">
        <ele>73</ele>
        <time>2021-06-01T19:47:44Z</time>
      </trkpt>
      <trkpt lat="46.70301" lon="0.95886">
        <ele>72</ele>
        <time>2021-06-01T19:47:56Z</time>
      </trkpt>
      <trkpt lat="46.70416" lon="0.95802">
        <ele>72</ele>
        <time>2021-06-01T19:48:19Z</time>
      </trkpt>
      <trkpt lat="46.70551" lon="0.95699">
        <ele>72</ele>
        <time>2021-06-01T19:48:46Z</time>
      </trkpt>
      <trkpt lat="46.7076" lon="0.95627">
        <ele>72</ele>
        <time>2021-06-01T19:49:24Z</time>
      </trkpt>
      <trkpt lat="46.70832" lon="0.95583">
        <ele>72</ele>
        <time>2021-06-01T19:49:38Z</time>
      </trkpt>
      <trkpt lat="46.71177" lon="0.95478">
        <ele>74</ele>
        <time>2021-06-01T19:50:41Z</time>
      </trkpt>
      <trkpt lat="46.71337" lon="0.95473">
        <ele>72</ele>
        <time>2021-06-01T19:51:09Z</time>
      </trkpt>
      <trkpt lat="46.71416" lon="0.95461">
        <ele>73</ele>
        <time>2021-06-01T19:51:24Z</time>
      </trkpt>
      <trkpt lat="46.71597" lon="0.95392">
        <ele>71</ele>
        <time>2021-06-01T19:51:57Z</time>
      </trkpt>
      <trkpt lat="46.71844" lon="0.95328">
        <ele>69</ele>
        <time>2021-06-01T19:52:41Z</time>
      </trkpt>
      <trkpt lat="46.72155" lon="0.95254">
        <ele>70</ele>
        <time>2021-06-01T19:53:38Z</time>
      </trkpt>
      <trkpt lat="46.72329" lon="0.95247">
        <ele>73</ele>
        <time>2021-06-01T19:54:08Z</time>
      </trkpt>
      <trkpt lat="46.72502" lon="0.95273">
        <ele>74</ele>
        <time>2021-06-01T19:54:39Z</time>
      </trkpt>
      <trkpt lat="46.72825" lon="0.95352">
        <ele>77</ele>
        <time>2021-06-01T19:55:38Z</time>
      </trkpt>
      <trkpt lat="46.72917" lon="0.95365">
        <ele>76</ele>
        <time>2021-06-01T19:55:54Z</time>
      </trkpt>
      <trkpt lat="46.73066" lon="0.95354">
        <ele>76</ele>
        <time>2021-06-01T19:56:21Z</time>
      </trkpt>
      <trkpt lat="46.73166" lon="0.95372">
        <ele>74</ele>
        <time>2021-06-01T19:56:39Z</time>
      </trkpt>
      <trkpt lat="46.7329" lon="0.95431">
        <ele>73</ele>
        <time>2021-06-01T19:57:02Z</time>
      </trkpt>
      <trkpt lat="46.73312" lon="0.95457">
        <ele>74</ele>
        <time>2021-06-01T19:57:07Z</time>
      </trkpt>
      <trkpt lat="46.73363" lon="0.9544">
        <ele>73</ele>
        <time>2021-06-01T19:57:16Z</time>
      </trkpt>
      <trkpt lat="46.73416" lon="0.95417">
        <ele>73</ele>
        <time>2021-06-01T19:57:26Z</time>
      </trkpt>
      <trkpt lat="46.73468" lon="0.95386">
        <ele>73</ele>
        <time>2021-06-01T19:57:36Z</time>
      </trkpt>
      <trkpt lat="46.73501" lon="0.95377">
        <ele>73</ele>
        <time>2021-06-01T19:57:42Z</time>
      </trkpt>
      <trkpt lat="46.73542" lon="0.95381">
        <ele>73</ele>
        <time>2021-06-01T19:57:49Z</time>
      </trkpt>
      <trkpt lat="46.7359" lon="0.95368">
        <ele>72</ele>
        <time>2021-06-01T19:57:58Z</time>
      </trkpt>
      <trkpt lat="46.73716" lon="0.95369">
        <ele>72</ele>
        <time>2021-06-01T19:58:20Z</time>
      </trkpt>
      <trkpt lat="46.74667" lon="0.94743">
        <ele>70</ele>
        <time>2021-06-01T20:01:26Z</time>
      </trkpt>
      <trkpt lat="46.75002" lon="0.94519">
        <ele>71</ele>
        <time>2021-06-01T20:02:32Z</time>
      </trkpt>
      <trkpt lat="46.75357" lon="0.94094">
        <ele>69</ele>
        <time>2021-06-01T20:03:53Z</time>
      </trkpt>
      <trkpt lat="46.76139" lon="0.93148">
        <ele>69</ele>
        <time>2021-06-01T20:06:54Z</time>
      </trkpt>
      <trkpt lat="46.76889" lon="0.92231">
        <ele>68</ele>
        <time>2021-06-01T20:09:48Z</time>
      </trkpt>
      <trkpt lat="46.77402" lon="0.90856">
        <ele>68</ele>
        <time>2021-06-01T20:12:59Z</time>
      </trkpt>
      <trkpt lat="46.78274" lon="0.88503">
        <ele>67</ele>
        <time>2021-06-01T20:18:25Z</time>
      </trkpt>
      <trkpt lat="46.78351" lon="0.88158">
        <ele>71</ele>
        <time>2021-06-01T20:19:09Z</time>
      </trkpt>
      <trkpt lat="46.78542" lon="0.87354">
        <ele>73</ele>
        <time>2021-06-01T20:20:53Z</time>
      </trkpt>
      <trkpt lat="46.78538" lon="0.87189">
        <ele>71</ele>
        <time>2021-06-01T20:21:13Z</time>
      </trkpt>
      <trkpt lat="46.78572" lon="0.86921">
        <ele>72</ele>
        <time>2021-06-01T20:21:46Z</time>
      </trkpt>
      <trkpt lat="46.78604" lon="0.86693">
        <ele>69</ele>
        <time>2021-06-01T20:22:14Z</time>
      </trkpt>
      <trkpt lat="46.7866" lon="0.86487">
        <ele>66</ele>
        <time>2021-06-01T20:22:41Z</time>
      </trkpt>
      <trkpt lat="46.78798" lon="0.86178">
        <ele>70</ele>
        <time>2021-06-01T20:23:26Z</time>
      </trkpt>
      <trkpt lat="46.78888" lon="0.85822">
        <ele>69</ele>
        <time>2021-06-01T20:24:13Z</time>
      </trkpt>
      <trkpt lat="46.78887" lon="0.85631">
        <ele>68</ele>
        <time>2021-06-01T20:24:36Z</time>
      </trkpt>
      <trkpt lat="46.78791" lon="0.85602">
        <ele>64</ele>
        <time>2021-06-01T20:24:53Z</time>
      </trkpt>
      <trkpt lat="46.78775" lon="0.85624">
        <ele>64</ele>
        <time>2021-06-01T20:24:57Z</time>
      </trkpt>
      <trkpt lat="46.78759" lon="0.85685">
        <ele>64</ele>
        <time>2021-06-01T20:25:05Z</time>
      </trkpt>
    </trkseg>
  </trk>
</gpx>